createdAt,value
2019-02-06T00:00:26.582Z,4.20
2019-02-06T00:01:23.156Z,4.16
2019-02-06T00:02:21.886Z,4.16
2019-02-06T00:03:21.879Z,4.12
2019-02-06T00:04:21.930Z,4.16
2019-02-06T00:05:22.073Z,4.17
2019-02-06T00:06:21.846Z,4.05
2019-02-06T00:07:21.961Z,4.20
2019-02-06T00:08:21.836Z,4.12
2019-02-06T00:09:21.817Z,4.12
2019-02-06T00:10:21.811Z,3.99
2019-02-06T00:11:21.799Z,4.01
2019-02-06T00:12:21.789Z,4.06
2019-02-06T00:13:21.894Z,4.04
2019-02-06T00:14:21.787Z,3.96
2019-02-06T00:15:21.739Z,3.99
2019-02-06T00:16:21.756Z,4.04
2019-02-06T00:17:21.730Z,3.99
2019-02-06T00:18:21.827Z,4.01
2019-02-06T00:19:21.712Z,3.98
2019-02-06T00:20:21.834Z,4.08
2019-02-06T00:21:22.010Z,4.10
2019-02-06T00:22:21.681Z,4.08
2019-02-06T00:23:21.673Z,4.04
2019-02-06T00:24:21.652Z,3.99
2019-02-06T00:25:21.879Z,3.99
2019-02-06T00:26:21.708Z,4.02
2019-02-06T00:27:21.609Z,4.06
2019-02-06T00:28:22.112Z,4.04
2019-02-06T00:29:21.653Z,4.05
2019-02-06T00:30:21.591Z,3.99
2019-02-06T00:31:23.035Z,3.98
2019-02-06T00:32:21.740Z,4.14
2019-02-06T00:33:21.624Z,4.12
2019-02-06T00:34:21.525Z,4.14
2019-02-06T00:35:25.777Z,4.02
2019-02-06T00:36:21.606Z,4.12
2019-02-06T00:37:21.493Z,4.05
2019-02-06T00:38:21.604Z,4.13
2019-02-06T00:39:21.893Z,4.14
2019-02-06T00:40:21.523Z,4.06
2019-02-06T00:41:21.922Z,4.02
2019-02-06T00:42:21.929Z,4.04
2019-02-06T00:43:21.504Z,4.04
2019-02-06T00:44:21.528Z,4.04
2019-02-06T00:45:21.519Z,4.02
2019-02-06T00:46:21.388Z,3.95
2019-02-06T00:47:21.389Z,3.99
2019-02-06T00:48:21.381Z,4.04
2019-02-06T00:49:21.373Z,3.96
2019-02-06T00:50:21.352Z,4.02
2019-02-06T00:51:21.474Z,4.02
2019-02-06T00:52:21.333Z,4.02
2019-02-06T00:53:21.339Z,3.96
2019-02-06T00:54:21.300Z,3.96
2019-02-06T00:55:21.340Z,4.05
2019-02-06T00:56:21.383Z,4.05
2019-02-06T00:57:21.460Z,3.98
2019-02-06T00:58:21.264Z,4.06
2019-02-06T00:59:21.418Z,3.99
2019-02-06T01:00:21.327Z,4.02
2019-02-06T01:01:21.227Z,4.04
2019-02-06T01:02:21.217Z,4.04
2019-02-06T01:03:21.305Z,4.02
2019-02-06T01:04:21.203Z,4.04
2019-02-06T01:05:21.211Z,3.94
2019-02-06T01:06:22.495Z,3.95
2019-02-06T01:07:21.174Z,3.96
2019-02-06T01:08:21.152Z,3.94
2019-02-06T01:09:21.238Z,4.01
2019-02-06T01:10:21.187Z,4.01
2019-02-06T01:11:21.144Z,4.02
2019-02-06T01:12:21.106Z,4.01
2019-02-06T01:13:21.103Z,3.98
2019-02-06T01:14:21.128Z,4.04
2019-02-06T01:15:21.298Z,3.99
2019-02-06T01:16:21.094Z,4.01
2019-02-06T01:17:21.074Z,3.99
2019-02-06T01:18:21.286Z,4.05
2019-02-06T01:19:21.049Z,4.04
2019-02-06T01:20:21.029Z,4.01
2019-02-06T01:21:21.024Z,4.13
2019-02-06T01:22:21.007Z,4.12
2019-02-06T01:23:21.001Z,4.13
2019-02-06T01:24:21.149Z,4.05
2019-02-06T01:25:20.990Z,4.13
2019-02-06T01:26:20.957Z,4.05
2019-02-06T01:27:21.115Z,4.08
2019-02-06T01:28:20.942Z,4.01
2019-02-06T01:29:20.939Z,4.02
2019-02-06T01:30:21.030Z,4.02
2019-02-06T01:31:20.899Z,4.01
2019-02-06T01:32:20.901Z,3.98
2019-02-06T01:33:20.911Z,4.05
2019-02-06T01:34:20.882Z,3.99
2019-02-06T01:35:21.045Z,3.99
2019-02-06T01:36:20.867Z,4.04
2019-02-06T01:37:20.882Z,4.01
2019-02-06T01:38:20.872Z,4.05
2019-02-06T01:39:20.869Z,4.04
2019-02-06T01:40:20.917Z,4.04
2019-02-06T01:41:21.051Z,3.98
2019-02-06T01:42:20.854Z,4.02
2019-02-06T01:43:20.833Z,3.98
2019-02-06T01:44:20.968Z,3.99
2019-02-06T01:45:20.782Z,4.06
2019-02-06T01:46:20.762Z,4.04
2019-02-06T01:47:20.981Z,4.04
2019-02-06T01:48:20.713Z,4.02
2019-02-06T01:49:20.840Z,4.04
2019-02-06T01:50:20.709Z,3.96
2019-02-06T01:51:20.703Z,3.96
2019-02-06T01:52:20.708Z,4.08
2019-02-06T01:53:20.803Z,4.02
2019-02-06T01:54:20.648Z,3.95
2019-02-06T01:55:20.645Z,3.94
2019-02-06T01:56:20.630Z,3.98
2019-02-06T01:57:20.642Z,3.94
2019-02-06T01:58:20.633Z,3.94
2019-02-06T01:59:20.854Z,3.98
2019-02-06T02:00:20.591Z,4.01
2019-02-06T02:01:20.682Z,4.02
2019-02-06T02:02:20.601Z,4.01
2019-02-06T02:03:20.581Z,3.92
2019-02-06T02:04:20.569Z,4.01
2019-02-06T02:05:20.998Z,3.96
2019-02-06T02:06:20.698Z,3.99
2019-02-06T02:07:20.634Z,3.92
2019-02-06T02:08:20.501Z,3.92
2019-02-06T02:09:20.512Z,3.96
2019-02-06T02:10:20.467Z,3.99
2019-02-06T02:11:20.470Z,3.96
2019-02-06T02:12:20.575Z,3.91
2019-02-06T02:13:20.447Z,3.91
2019-02-06T02:14:20.461Z,3.95
2019-02-06T02:15:20.424Z,3.98
2019-02-06T02:16:20.475Z,3.94
2019-02-06T02:17:20.387Z,3.96
2019-02-06T02:18:20.637Z,4.02
2019-02-06T02:19:20.380Z,3.99
2019-02-06T02:20:20.399Z,3.94
2019-02-06T02:21:20.376Z,3.96
2019-02-06T02:22:20.338Z,3.87
2019-02-06T02:23:20.330Z,3.91
2019-02-06T02:24:20.417Z,3.78
2019-02-06T02:25:20.315Z,3.87
2019-02-06T02:26:20.291Z,3.74
2019-02-06T02:27:20.350Z,3.70
2019-02-06T02:28:20.267Z,3.74
2019-02-06T02:29:20.346Z,3.73
2019-02-06T02:30:20.251Z,3.74
2019-02-06T02:31:20.251Z,3.74
2019-02-06T02:32:20.895Z,3.69
2019-02-06T02:33:20.310Z,3.83
2019-02-06T02:34:20.214Z,3.78
2019-02-06T02:35:20.416Z,3.78
2019-02-06T02:36:20.191Z,3.81
2019-02-06T02:37:20.248Z,3.88
2019-02-06T02:38:20.160Z,3.80
2019-02-06T02:39:20.152Z,3.77
2019-02-06T02:40:20.875Z,3.76
2019-02-06T02:41:20.329Z,3.92
2019-02-06T02:42:20.157Z,3.92
2019-02-06T02:43:20.261Z,3.84
2019-02-06T02:44:20.096Z,3.92
2019-02-06T02:45:20.172Z,3.88
2019-02-06T02:46:20.239Z,3.92
2019-02-06T02:47:20.085Z,3.94
2019-02-06T02:48:20.109Z,3.92
2019-02-06T02:49:20.342Z,4.02
2019-02-06T02:50:20.121Z,3.95
2019-02-06T02:51:20.022Z,3.95
2019-02-06T02:52:20.467Z,3.99
2019-02-06T02:53:20.050Z,3.99
2019-02-06T02:54:20.069Z,3.94
2019-02-06T02:55:19.980Z,3.98
2019-02-06T02:56:20.032Z,3.91
2019-02-06T02:57:20.041Z,3.99
2019-02-06T02:58:21.045Z,3.99
2019-02-06T02:59:19.956Z,3.99
2019-02-06T03:00:20.003Z,3.96
2019-02-06T03:01:19.955Z,4.02
2019-02-06T03:02:19.921Z,3.92
2019-02-06T03:03:19.967Z,3.92
2019-02-06T03:04:20.471Z,3.98
2019-02-06T03:05:19.905Z,3.92
2019-02-06T03:06:28.240Z,3.92
2019-02-06T03:07:20.934Z,3.96
2019-02-06T03:08:20.052Z,3.98
2019-02-06T03:09:20.161Z,4.02
2019-02-06T03:10:19.945Z,4.01
2019-02-06T03:11:19.808Z,3.95
2019-02-06T03:12:19.796Z,4.02
2019-02-06T03:13:19.778Z,4.01
2019-02-06T03:14:19.779Z,4.04
2019-02-06T03:15:19.764Z,4.01
2019-02-06T03:16:20.175Z,4.02
2019-02-06T03:17:19.753Z,4.05
2019-02-06T03:18:19.754Z,3.99
2019-02-06T03:19:19.724Z,4.02
2019-02-06T03:20:19.699Z,4.04
2019-02-06T03:21:19.691Z,3.96
2019-02-06T03:22:19.891Z,4.01
2019-02-06T03:23:19.695Z,4.04
2019-02-06T03:24:19.758Z,4.10
2019-02-06T03:25:19.660Z,4.10
2019-02-06T03:26:19.673Z,4.14
2019-02-06T03:27:19.632Z,4.12
2019-02-06T03:28:19.773Z,4.17
2019-02-06T03:29:19.601Z,4.08
2019-02-06T03:30:19.929Z,4.12
2019-02-06T03:31:19.602Z,4.14
2019-02-06T03:32:19.778Z,4.14
2019-02-06T03:33:19.558Z,4.12
2019-02-06T03:34:19.567Z,4.12
2019-02-06T03:35:19.543Z,4.13
2019-02-06T03:36:19.557Z,4.10
2019-02-06T03:37:19.860Z,4.13
2019-02-06T03:38:19.509Z,4.14
2019-02-06T03:39:19.573Z,4.10
2019-02-06T03:40:19.504Z,4.13
2019-02-06T03:41:19.490Z,4.16
2019-02-06T03:42:19.495Z,4.12
2019-02-06T03:43:19.846Z,4.14
2019-02-06T03:44:19.432Z,4.13
2019-02-06T03:45:19.423Z,4.14
2019-02-06T03:46:19.552Z,4.22
2019-02-06T03:47:19.517Z,4.16
2019-02-06T03:48:19.399Z,4.10
2019-02-06T03:49:19.381Z,4.17
2019-02-06T03:50:19.378Z,4.23
2019-02-06T03:51:19.366Z,4.20
2019-02-06T03:52:19.353Z,4.10
2019-02-06T03:53:19.456Z,4.14
2019-02-06T03:54:19.336Z,4.10
2019-02-06T03:55:19.309Z,4.13
2019-02-06T03:56:19.411Z,4.05
2019-02-06T03:57:19.296Z,4.12
2019-02-06T03:58:19.303Z,4.05
2019-02-06T03:59:19.415Z,4.12
2019-02-06T04:00:19.269Z,4.08
2019-02-06T04:01:19.258Z,4.14
2019-02-06T04:02:19.234Z,4.14
2019-02-06T04:03:19.236Z,4.12
2019-02-06T04:04:19.243Z,4.14
2019-02-06T04:05:19.415Z,4.12
2019-02-06T04:06:19.207Z,4.20
2019-02-06T04:07:19.184Z,4.08
2019-02-06T04:08:19.170Z,4.05
2019-02-06T04:09:19.473Z,4.05
2019-02-06T04:10:19.191Z,4.16
2019-02-06T04:11:19.286Z,4.12
2019-02-06T04:12:19.170Z,4.06
2019-02-06T04:13:19.204Z,4.12
2019-02-06T04:14:19.099Z,4.14
2019-02-06T04:15:19.115Z,4.13
2019-02-06T04:16:19.083Z,4.01
2019-02-06T04:17:19.397Z,3.99
2019-02-06T04:18:19.114Z,4.01
2019-02-06T04:19:19.083Z,4.01
2019-02-06T04:20:19.039Z,3.96
2019-02-06T04:21:19.037Z,3.98
2019-02-06T04:22:19.051Z,4.02
2019-02-06T04:23:19.335Z,4.01
2019-02-06T04:24:18.997Z,3.94
2019-02-06T04:25:18.983Z,3.95
2019-02-06T04:26:19.064Z,3.98
2019-02-06T04:27:18.982Z,3.92
2019-02-06T04:28:19.085Z,3.94
2019-02-06T04:29:19.194Z,3.80
2019-02-06T04:30:19.133Z,3.77
2019-02-06T04:31:18.942Z,3.81
2019-02-06T04:32:18.990Z,3.87
2019-02-06T04:33:19.975Z,3.84
2019-02-06T04:34:18.937Z,3.87
2019-02-06T04:35:19.179Z,3.74
2019-02-06T04:36:19.114Z,3.73
2019-02-06T04:37:18.955Z,3.73
2019-02-06T04:38:18.958Z,3.68
2019-02-06T04:39:18.911Z,3.66
2019-02-06T04:40:18.890Z,3.59
2019-02-06T04:41:19.031Z,3.58
2019-02-06T04:42:18.809Z,3.59
2019-02-06T04:43:18.804Z,3.48
2019-02-06T04:44:18.797Z,3.51
2019-02-06T04:45:18.913Z,3.51
2019-02-06T04:46:19.067Z,3.47
2019-02-06T04:47:19.116Z,3.41
2019-02-06T04:48:18.753Z,3.34
2019-02-06T04:49:18.735Z,3.31
2019-02-06T04:50:18.730Z,3.32
2019-02-06T04:51:18.719Z,3.22
2019-02-06T04:52:18.701Z,3.18
2019-02-06T04:53:18.798Z,3.18
2019-02-06T04:54:18.686Z,3.07
2019-02-06T04:55:18.663Z,3.08
2019-02-06T04:56:18.681Z,2.97
2019-02-06T04:57:18.763Z,3.01
2019-02-06T04:58:18.917Z,2.93
2019-02-06T04:59:18.619Z,2.95
2019-02-06T05:00:18.611Z,2.93
2019-02-06T05:01:18.597Z,2.86
2019-02-06T05:02:18.666Z,2.90
2019-02-06T05:03:18.576Z,2.86
2019-02-06T05:04:19.048Z,2.90
2019-02-06T05:05:18.566Z,2.82
2019-02-06T05:06:18.554Z,2.83
2019-02-06T05:07:19.689Z,2.82
2019-02-06T05:08:18.534Z,2.77
2019-02-06T05:09:18.554Z,2.72
2019-02-06T05:10:19.054Z,2.82
2019-02-06T05:11:18.515Z,2.79
2019-02-06T05:12:19.093Z,2.71
2019-02-06T05:13:18.488Z,2.54
2019-02-06T05:14:18.492Z,2.60
2019-02-06T05:15:18.450Z,2.56
2019-02-06T05:16:18.529Z,2.53
2019-02-06T05:17:18.428Z,2.50
2019-02-06T05:18:18.425Z,2.50
2019-02-06T05:19:18.697Z,2.46
2019-02-06T05:20:18.400Z,2.46
2019-02-06T05:21:18.647Z,2.38
2019-02-06T05:22:18.367Z,2.39
2019-02-06T05:23:18.371Z,2.31
2019-02-06T05:24:18.406Z,2.33
2019-02-06T05:25:18.363Z,2.31
2019-02-06T05:26:18.435Z,2.20
2019-02-06T05:27:18.321Z,2.26
2019-02-06T05:28:18.434Z,2.13
2019-02-06T05:29:18.295Z,2.18
2019-02-06T05:30:18.292Z,2.18
2019-02-06T05:31:18.287Z,2.24
2019-02-06T05:32:18.339Z,2.17
2019-02-06T05:33:18.344Z,2.17
2019-02-06T05:34:18.268Z,2.13
2019-02-06T05:35:18.234Z,2.13
2019-02-06T05:36:18.330Z,2.11
2019-02-06T05:37:31.287Z,2.02
2019-02-06T05:38:19.285Z,2.02
2019-02-06T05:39:18.186Z,2.06
2019-02-06T05:40:18.187Z,2.02
2019-02-06T05:41:18.171Z,1.94
2019-02-06T05:42:18.173Z,1.89
2019-02-06T05:43:18.149Z,1.94
2019-02-06T05:44:18.634Z,1.87
2019-02-06T05:45:18.122Z,1.88
2019-02-06T05:46:18.108Z,1.87
2019-02-06T05:47:18.192Z,1.76
2019-02-06T05:48:18.095Z,1.87
2019-02-06T05:49:18.083Z,1.73
2019-02-06T05:50:18.400Z,1.71
2019-02-06T05:51:18.084Z,1.73
2019-02-06T05:52:18.285Z,1.81
2019-02-06T05:53:18.192Z,1.76
2019-02-06T05:54:18.035Z,1.67
2019-02-06T05:55:18.043Z,1.71
2019-02-06T05:56:18.012Z,1.74
2019-02-06T05:57:18.047Z,1.62
2019-02-06T05:58:18.250Z,1.59
2019-02-06T05:59:18.005Z,1.55
2019-02-06T06:00:17.958Z,1.63
2019-02-06T06:01:17.989Z,1.63
2019-02-06T06:02:18.274Z,1.56
2019-02-06T06:03:17.927Z,1.67
2019-02-06T06:04:18.065Z,1.68
2019-02-06T06:05:17.905Z,1.70
2019-02-06T06:06:17.901Z,1.71
2019-02-06T06:07:17.900Z,1.70
2019-02-06T06:08:18.076Z,1.76
2019-02-06T06:09:17.872Z,1.76
2019-02-06T06:10:17.943Z,1.73
2019-02-06T06:11:18.029Z,1.71
2019-02-06T06:12:17.846Z,1.66
2019-02-06T06:13:18.541Z,1.71
2019-02-06T06:14:17.973Z,1.67
2019-02-06T06:15:17.916Z,1.68
2019-02-06T06:16:17.792Z,1.71
2019-02-06T06:17:17.778Z,1.68
2019-02-06T06:18:17.782Z,1.62
2019-02-06T06:19:17.760Z,1.62
2019-02-06T06:20:17.737Z,1.70
2019-02-06T06:21:17.897Z,1.56
2019-02-06T06:22:17.740Z,1.62
2019-02-06T06:23:17.714Z,1.53
2019-02-06T06:24:17.726Z,1.56
2019-02-06T06:25:17.777Z,1.52
2019-02-06T06:26:17.681Z,1.55
2019-02-06T06:27:17.911Z,1.42
2019-02-06T06:28:17.649Z,1.42
2019-02-06T06:29:17.652Z,1.50
2019-02-06T06:30:17.674Z,1.45
2019-02-06T06:31:17.624Z,1.41
2019-02-06T06:32:17.678Z,1.44
2019-02-06T06:33:17.744Z,1.38
2019-02-06T06:34:18.521Z,1.44
2019-02-06T06:35:17.596Z,1.48
2019-02-06T06:36:17.595Z,1.37
2019-02-06T06:37:17.575Z,1.38
2019-02-06T06:38:17.562Z,1.48
2019-02-06T06:39:17.758Z,1.44
2019-02-06T06:40:17.560Z,1.24
2019-02-06T06:41:17.526Z,1.26
2019-02-06T06:42:17.613Z,1.31
2019-02-06T06:43:17.508Z,1.28
2019-02-06T06:44:17.516Z,1.26
2019-02-06T06:45:17.934Z,1.32
2019-02-06T06:46:17.467Z,1.26
2019-02-06T06:47:17.456Z,1.30
2019-02-06T06:48:17.433Z,1.32
2019-02-06T06:49:17.580Z,1.28
2019-02-06T06:50:17.415Z,1.34
2019-02-06T06:51:17.408Z,1.28
2019-02-06T06:52:17.399Z,1.32
2019-02-06T06:53:17.397Z,1.31
2019-02-06T06:54:17.378Z,1.26
2019-02-06T06:55:17.489Z,1.32
2019-02-06T06:56:17.539Z,1.32
2019-02-06T06:57:17.373Z,1.32
2019-02-06T06:58:17.340Z,1.32
2019-02-06T06:59:17.452Z,1.31
2019-02-06T07:00:17.312Z,1.30
2019-02-06T07:01:17.335Z,1.30
2019-02-06T07:02:17.423Z,1.35
2019-02-06T07:03:17.328Z,1.35
2019-02-06T07:04:17.278Z,1.38
2019-02-06T07:05:17.293Z,1.49
2019-02-06T07:06:17.294Z,1.38
2019-02-06T07:07:17.258Z,1.41
2019-02-06T07:08:17.367Z,1.50
2019-02-06T07:09:17.217Z,1.52
2019-02-06T07:10:17.211Z,1.59
2019-02-06T07:11:17.199Z,1.67
2019-02-06T07:12:17.436Z,1.67
2019-02-06T07:13:17.380Z,1.68
2019-02-06T07:14:17.184Z,1.68
2019-02-06T07:15:17.157Z,1.80
2019-02-06T07:16:17.145Z,1.78
2019-02-06T07:17:17.140Z,1.81
2019-02-06T07:18:17.146Z,2.10
2019-02-06T07:19:17.227Z,2.04
2019-02-06T07:20:17.104Z,2.17
2019-02-06T07:21:17.093Z,2.17
2019-02-06T07:22:17.150Z,2.14
2019-02-06T07:23:17.101Z,2.24
2019-02-06T07:24:17.061Z,2.18
2019-02-06T07:25:17.227Z,2.24
2019-02-06T07:26:17.033Z,2.32
2019-02-06T07:27:17.032Z,2.26
2019-02-06T07:28:17.027Z,2.26
2019-02-06T07:29:17.039Z,2.28
2019-02-06T07:30:17.258Z,2.26
2019-02-06T07:31:17.090Z,2.26
2019-02-06T07:32:16.988Z,2.29
2019-02-06T07:33:16.978Z,2.28
2019-02-06T07:34:16.977Z,2.29
2019-02-06T07:35:16.947Z,2.28
2019-02-06T07:36:17.095Z,2.26
2019-02-06T07:37:16.934Z,2.24
2019-02-06T07:38:24.421Z,2.24
2019-02-06T07:39:18.045Z,2.29
2019-02-06T07:40:16.964Z,2.31
2019-02-06T07:41:16.927Z,2.39
2019-02-06T07:42:16.928Z,2.32
2019-02-06T07:43:16.924Z,2.31
2019-02-06T07:44:16.921Z,2.31
2019-02-06T07:45:17.413Z,2.36
2019-02-06T07:46:16.823Z,2.36
2019-02-06T07:47:17.053Z,2.36
2019-02-06T07:48:16.980Z,2.38
2019-02-06T07:49:16.801Z,2.46
2019-02-06T07:50:16.774Z,2.62
2019-02-06T07:51:17.361Z,2.61
2019-02-06T07:52:16.755Z,2.67
2019-02-06T07:53:16.735Z,2.79
2019-02-06T07:54:17.022Z,2.85
2019-02-06T07:55:16.740Z,2.80
2019-02-06T07:56:16.825Z,2.68
2019-02-06T07:57:16.701Z,2.80
2019-02-06T07:58:16.834Z,2.92
2019-02-06T07:59:16.749Z,3.05
2019-02-06T08:00:16.667Z,2.97
2019-02-06T08:01:16.664Z,3.14
2019-02-06T08:02:16.649Z,3.28
2019-02-06T08:03:16.632Z,3.40
2019-02-06T08:04:16.731Z,3.62
2019-02-06T08:05:16.722Z,3.77
2019-02-06T08:06:16.596Z,3.74
2019-02-06T08:07:16.599Z,3.83
2019-02-06T08:08:16.585Z,4.02
2019-02-06T08:09:16.999Z,4.17
2019-02-06T08:10:16.552Z,3.94
2019-02-06T08:11:16.549Z,4.04
2019-02-06T08:12:16.535Z,3.99
2019-02-06T08:13:17.066Z,3.98
2019-02-06T08:14:16.523Z,4.04
2019-02-06T08:15:16.692Z,3.95
2019-02-06T08:16:16.488Z,3.94
2019-02-06T08:17:16.487Z,3.74
2019-02-06T08:18:16.469Z,3.53
2019-02-06T08:22:48.882Z,3.18
2019-02-06T08:23:48.465Z,3.23
2019-02-06T08:24:48.489Z,3.31
2019-02-06T08:25:49.437Z,3.32
2019-02-06T08:26:48.462Z,3.36
2019-02-06T08:27:48.465Z,3.42
2019-02-06T08:28:48.199Z,3.40
2019-02-06T08:29:48.500Z,3.55
2019-02-06T08:30:47.939Z,3.60
2019-02-06T08:31:48.797Z,3.70
2019-02-06T08:32:47.922Z,3.70
2019-02-06T08:33:48.956Z,3.60
2019-02-06T08:34:47.923Z,3.59
2019-02-06T08:35:47.915Z,3.68
2019-02-06T08:36:47.903Z,3.74
2019-02-06T08:37:48.777Z,3.69
2019-02-06T08:38:50.400Z,3.74
2019-02-06T08:39:47.860Z,3.70
2019-02-06T08:40:47.844Z,3.86
2019-02-06T08:41:47.824Z,3.91
2019-02-06T08:42:47.813Z,4.01
2019-02-06T08:43:47.922Z,3.96
2019-02-06T08:44:47.831Z,3.99
2019-02-06T08:45:47.783Z,4.05
2019-02-06T08:46:47.901Z,4.28
2019-02-06T08:47:47.748Z,4.30
2019-02-06T08:48:47.930Z,4.60
2019-02-06T08:49:48.745Z,4.60
2019-02-06T08:50:47.723Z,4.59
2019-02-06T08:51:47.846Z,4.71
2019-02-06T08:53:02.448Z,4.74
2019-02-06T08:53:47.725Z,4.67
2019-02-06T08:54:47.793Z,4.92
2019-02-06T08:55:47.666Z,5.33
2019-02-06T08:56:47.653Z,5.79
2019-02-06T08:57:47.663Z,6.31
2019-02-06T08:58:47.650Z,7.51
2019-02-06T08:59:47.661Z,8.46
2019-02-06T09:00:47.710Z,9.19
2019-02-06T09:01:47.623Z,9.98
2019-02-06T09:02:47.714Z,11.10
2019-02-06T09:03:47.668Z,11.07
2019-02-06T09:04:55.448Z,10.37
2019-02-06T09:05:48.556Z,10.19
2019-02-06T09:06:47.547Z,10.46
2019-02-06T09:07:47.561Z,11.02
2019-02-06T09:08:59.231Z,10.71
2019-02-06T09:09:48.906Z,10.44
2019-02-06T09:10:47.508Z,10.49
2019-02-06T09:11:47.503Z,10.78
2019-02-06T09:12:47.477Z,11.54
2019-02-06T09:13:47.601Z,11.83
2019-02-06T09:14:47.461Z,12.47
2019-02-06T09:15:47.591Z,13.16
2019-02-06T09:16:47.448Z,12.68
2019-02-06T09:17:47.423Z,12.43
2019-02-06T09:18:47.455Z,13.13
2019-02-06T09:19:47.410Z,12.79
2019-02-06T09:20:47.697Z,12.60
2019-02-06T09:21:47.431Z,11.69
2019-02-06T09:22:47.383Z,11.29
2019-02-06T09:23:47.358Z,11.22
2019-02-06T09:24:47.363Z,11.29
2019-02-06T09:25:47.356Z,11.63
2019-02-06T09:26:47.571Z,11.69
2019-02-06T09:27:47.434Z,12.29
2019-02-06T09:28:47.304Z,12.65
2019-02-06T09:29:47.296Z,13.30
2019-02-06T09:30:47.423Z,13.72
2019-02-06T09:31:47.434Z,13.75
2019-02-06T09:32:47.281Z,13.77
2019-02-06T09:33:47.262Z,13.13
2019-02-06T09:34:47.272Z,12.68
2019-02-06T09:35:47.297Z,12.47
2019-02-06T09:36:47.244Z,12.36
2019-02-06T09:37:47.421Z,12.43
2019-02-06T09:38:47.214Z,12.27
2019-02-06T09:39:47.648Z,12.15
2019-02-06T09:40:49.352Z,11.66
2019-02-06T09:41:47.677Z,11.30
2019-02-06T09:42:47.297Z,11.10
2019-02-06T09:43:47.143Z,11.23
2019-02-06T09:44:47.164Z,11.36
2019-02-06T09:45:47.127Z,11.08
2019-02-06T09:46:47.107Z,11.55
2019-02-06T09:47:47.219Z,12.17
2019-02-06T09:48:47.095Z,12.24
2019-02-06T09:49:49.759Z,12.24
2019-02-06T09:50:47.273Z,12.12
2019-02-06T09:51:47.229Z,12.17
2019-02-06T09:52:47.125Z,12.64
2019-02-06T09:53:47.032Z,12.87
2019-02-06T09:54:47.017Z,13.27
2019-02-06T09:55:47.002Z,13.46
2019-02-06T09:56:47.006Z,13.77
2019-02-06T09:57:47.234Z,14.60
2019-02-06T09:58:46.990Z,14.88
2019-02-06T09:59:47.082Z,15.07
2019-02-06T10:00:46.953Z,14.29
2019-02-06T10:01:46.941Z,13.39
2019-02-06T10:02:46.941Z,13.46
2019-02-06T10:03:47.140Z,13.05
2019-02-06T10:04:46.943Z,12.91
2019-02-06T10:05:47.206Z,12.97
2019-02-06T10:06:46.930Z,13.03
2019-02-06T10:07:47.004Z,12.39
2019-02-06T10:08:46.935Z,12.46
2019-02-06T10:09:47.048Z,12.47
2019-02-06T10:10:46.894Z,12.76
2019-02-06T10:11:47.362Z,12.09
2019-02-06T10:12:46.820Z,11.73
2019-02-06T10:13:46.925Z,11.37
2019-02-06T10:14:46.817Z,11.40
2019-02-06T10:15:46.785Z,11.27
2019-02-06T10:16:46.781Z,10.34
2019-02-06T10:17:47.173Z,9.95
2019-02-06T10:18:46.752Z,9.91
2019-02-06T10:19:46.750Z,9.18
2019-02-06T10:20:46.758Z,8.95
2019-02-06T10:21:50.360Z,8.52
2019-02-06T10:22:47.890Z,8.49
2019-02-06T10:23:46.733Z,8.60
2019-02-06T10:24:46.787Z,9.13
2019-02-06T10:25:46.684Z,9.74
2019-02-06T10:26:46.674Z,9.95
2019-02-06T10:27:46.654Z,9.99
2019-02-06T10:28:47.158Z,9.89
2019-02-06T10:29:46.656Z,10.26
2019-02-06T10:30:46.643Z,11.23
2019-02-06T10:31:46.628Z,11.87
2019-02-06T10:32:46.610Z,13.37
2019-02-06T10:33:46.608Z,13.96
2019-02-06T10:34:46.694Z,13.35
2019-02-06T10:35:46.707Z,12.76
2019-02-06T10:36:46.569Z,12.18
2019-02-06T10:37:46.540Z,11.62
2019-02-06T10:38:46.532Z,11.33
2019-02-06T10:39:46.520Z,11.10
2019-02-06T10:40:46.559Z,11.08
2019-02-06T10:41:46.710Z,10.81
2019-02-06T10:42:46.674Z,10.97
2019-02-06T10:43:46.484Z,11.75
2019-02-06T10:44:46.458Z,12.39
2019-02-06T10:45:46.449Z,13.03
2019-02-06T10:46:46.443Z,14.08
2019-02-06T10:47:46.438Z,15.09
2019-02-06T10:48:46.660Z,15.73
2019-02-06T10:49:46.496Z,16.32
2019-02-06T10:50:47.305Z,16.26
2019-02-06T10:51:46.386Z,15.76
2019-02-06T10:52:48.255Z,15.44
2019-02-06T10:53:46.379Z,15.68
2019-02-06T10:54:46.602Z,15.21
2019-02-06T10:55:46.361Z,15.04
2019-02-06T10:56:46.324Z,14.55
2019-02-06T10:57:46.316Z,13.50
2019-02-06T10:58:46.377Z,14.00
2019-02-06T10:59:46.302Z,14.37
2019-02-06T11:00:46.559Z,14.03
2019-02-06T11:01:46.278Z,13.77
2019-02-06T11:02:46.285Z,14.12
2019-02-06T11:03:46.252Z,14.55
2019-02-06T11:04:46.262Z,15.29
2019-02-06T11:05:46.245Z,16.04
2019-02-06T11:06:46.368Z,17.15
2019-02-06T11:07:46.419Z,16.13
2019-02-06T11:08:46.202Z,15.52
2019-02-06T11:09:46.601Z,14.94
2019-02-06T11:10:46.434Z,14.51
2019-02-06T11:11:46.163Z,14.18
2019-02-06T11:12:46.322Z,13.92
2019-02-06T11:13:46.179Z,14.55
2019-02-06T11:14:46.134Z,14.26
2019-02-06T11:15:46.227Z,14.55
2019-02-06T11:16:46.137Z,13.93
2019-02-06T11:17:46.135Z,13.30
2019-02-06T11:18:46.238Z,13.15
2019-02-06T11:19:46.083Z,13.15
2019-02-06T11:20:46.062Z,12.80
2019-02-06T11:21:46.065Z,12.68
2019-02-06T11:22:46.606Z,12.86
2019-02-06T11:23:46.039Z,12.75
2019-02-06T11:24:46.014Z,13.00
2019-02-06T11:25:46.062Z,13.04
2019-02-06T11:26:46.134Z,12.12
2019-02-06T11:27:45.996Z,11.83
2019-02-06T11:28:45.973Z,12.07
2019-02-06T11:29:48.407Z,11.73
2019-02-06T11:30:45.994Z,11.72
2019-02-06T11:31:46.095Z,11.00
2019-02-06T11:32:46.029Z,10.56
2019-02-06T11:33:45.929Z,9.99
2019-02-06T11:34:46.121Z,9.64
2019-02-06T11:35:45.985Z,9.54
2019-02-06T11:36:45.882Z,9.39
2019-02-06T11:37:46.067Z,9.32
2019-02-06T11:38:46.114Z,9.51
2019-02-06T11:39:57.277Z,10.09
2019-02-06T11:40:47.640Z,10.28
2019-02-06T11:41:45.844Z,10.68
2019-02-06T11:42:45.839Z,10.86
2019-02-06T11:43:45.930Z,11.14
2019-02-06T11:44:45.815Z,11.22
2019-02-06T11:45:45.822Z,11.63
2019-02-06T11:46:45.794Z,11.81
2019-02-06T11:47:45.821Z,11.54
2019-02-06T11:48:45.806Z,11.04
2019-02-06T11:49:46.087Z,10.87
2019-02-06T11:50:45.737Z,10.82
2019-02-06T11:51:45.739Z,10.94
2019-02-06T11:52:45.739Z,10.96
2019-02-06T11:54:56.627Z,10.37
2019-02-06T11:55:56.481Z,10.22
2019-02-06T11:56:56.981Z,10.54
2019-02-06T11:57:56.458Z,11.26
2019-02-06T11:58:56.479Z,11.88
2019-02-06T11:59:56.447Z,12.27
2019-02-06T12:00:57.078Z,12.58
2019-02-06T12:01:56.429Z,12.60
2019-02-06T12:02:56.401Z,12.07
2019-02-06T12:03:56.414Z,11.57
2019-02-06T12:04:56.380Z,11.41
2019-02-06T12:05:56.373Z,11.65
2019-02-06T12:06:56.551Z,11.14
2019-02-06T12:07:56.351Z,10.71
2019-02-06T12:08:56.340Z,10.78
2019-02-06T12:09:56.344Z,11.27
2019-02-06T12:10:56.326Z,11.43
2019-02-06T12:11:56.363Z,10.93
2019-02-06T12:12:56.481Z,10.56
2019-02-06T12:13:56.610Z,10.76
2019-02-06T12:14:56.278Z,10.74
2019-02-06T12:15:56.394Z,10.82
2019-02-06T12:16:56.262Z,10.82
2019-02-06T12:17:56.318Z,10.63
2019-02-06T12:18:56.373Z,10.35
2019-02-06T12:19:56.325Z,10.54
2019-02-06T12:20:56.215Z,10.33
2019-02-06T12:21:56.206Z,10.07
2019-02-06T12:22:56.211Z,9.65
2019-02-06T12:23:56.189Z,9.36
2019-02-06T12:24:56.374Z,9.25
2019-02-06T12:25:57.390Z,9.21
2019-02-06T12:26:56.272Z,9.13
2019-02-06T12:27:56.134Z,9.25
2019-02-06T12:28:56.404Z,9.47
2019-02-06T12:29:56.291Z,9.25
2019-02-06T12:30:56.327Z,9.22
2019-02-06T12:31:56.091Z,8.99
2019-02-06T12:32:56.087Z,9.04
2019-02-06T12:33:56.069Z,8.74
2019-02-06T12:34:56.285Z,8.53
2019-02-06T12:35:56.192Z,8.73
2019-02-06T12:36:56.045Z,8.84
2019-02-06T12:37:56.260Z,8.61
2019-02-06T12:38:56.027Z,8.53
2019-02-06T12:39:56.023Z,8.60
2019-02-06T12:40:56.039Z,8.73
2019-02-06T12:41:56.133Z,8.56
2019-02-06T12:42:55.989Z,8.56
2019-02-06T12:43:55.975Z,8.58
2019-02-06T12:44:58.968Z,8.45
2019-02-06T12:45:56.045Z,8.30
2019-02-06T12:46:56.147Z,8.46
2019-02-06T12:47:56.173Z,8.36
2019-02-06T12:48:56.016Z,8.45
2019-02-06T12:49:55.899Z,8.51
2019-02-06T12:50:55.898Z,8.41
2019-02-06T12:51:55.873Z,8.36
2019-02-06T12:52:57.433Z,8.31
2019-02-06T12:53:55.850Z,8.33
2019-02-06T12:54:55.923Z,8.37
2019-02-06T12:55:55.843Z,8.38
2019-02-06T12:56:55.811Z,8.31
2019-02-06T12:57:55.812Z,8.28
2019-02-06T12:58:55.802Z,8.42
2019-02-06T12:59:55.789Z,8.58
2019-02-06T13:00:55.902Z,8.64
2019-02-06T13:01:55.764Z,8.85
2019-02-06T13:02:59.241Z,9.06
2019-02-06T13:03:55.736Z,9.11
2019-02-06T13:04:55.781Z,9.36
2019-02-06T13:05:55.937Z,9.51
2019-02-06T13:06:55.705Z,9.44
2019-02-06T13:07:55.695Z,9.40
2019-02-06T13:08:55.675Z,9.48
2019-02-06T13:09:55.666Z,9.34
2019-02-06T13:10:55.654Z,9.46
2019-02-06T13:11:55.872Z,9.47
2019-02-06T13:12:55.640Z,9.31
2019-02-06T13:13:55.854Z,9.40
2019-02-06T13:14:55.633Z,9.32
2019-02-06T13:15:55.639Z,9.36
2019-02-06T13:16:55.607Z,9.29